KAL9 YSSY-YMML
Flight info
| Callsign | KAL9 |
|---|---|
| Flight time | 1h 28m |
| Altitude | 30000 |
| Route | WOL2 WOL H65 LEECE Q29 ML DCT |
| Aircraft | B77L/H-SDE1E2E3FGHIJ2J3J4J5M1RWXY/LB1D1 |
Departure
| Time | 2026-05-04 06:15 |
|---|---|
| Airport | Sydney Kingsford Smith International Airport (YSSY) |
Arrival
| Time | 2026-05-04 07:44 |
|---|---|
| Airport | Melbourne Airport (YMML) |
| Time | Latitude | Longitude | Altitude | Speed | Heading |
|---|---|---|---|---|---|
| 2026-05-04 05:45 | -33.92982 | 151.16754 | 28 ft | 0 kts | 257° |
| 2026-05-04 05:55 | -33.92981 | 151.16758 | 25 ft | 3 kts | 257° |
| 2026-05-04 05:55 | -33.92977 | 151.16779 | 28 ft | 3 kts | 257° |
| 2026-05-04 05:56 | -33.92973 | 151.16801 | 31 ft | 3 kts | 257° |
| 2026-05-04 05:56 | -33.92969 | 151.16823 | 31 ft | 3 kts | 257° |
| 2026-05-04 05:56 | -33.92964 | 151.16845 | 31 ft | 3 kts | 229° |
| 2026-05-04 05:56 | -33.92948 | 151.16859 | 31 ft | 3 kts | 186° |
| 2026-05-04 05:57 | -33.92936 | 151.16859 | 30 ft | 0 kts | 166° |
| 2026-05-04 05:57 | -33.92938 | 151.16860 | 30 ft | 0 kts | 166° |
| 2026-05-04 06:00 | -33.92948 | 151.16863 | 30 ft | 10 kts | 164° |
| 2026-05-04 06:00 | -33.93114 | 151.16935 | 28 ft | 37 kts | 167° |
| 2026-05-04 06:01 | -33.93341 | 151.17055 | 29 ft | 33 kts | 146° |
| 2026-05-04 06:01 | -33.93526 | 151.17108 | 28 ft | 34 kts | 168° |
| 2026-05-04 06:03 | -33.93963 | 151.17283 | 27 ft | 4 kts | 81° |
| 2026-05-04 06:03 | -33.93962 | 151.17288 | 27 ft | 0 kts | 81° |
| 2026-05-04 06:05 | -33.94304 | 151.17886 | 29 ft | 19 kts | 168° |
| 2026-05-04 06:05 | -33.94581 | 151.17898 | 29 ft | 22 kts | 168° |
| 2026-05-04 06:05 | -33.94736 | 151.17938 | 26 ft | 24 kts | 167° |
| 2026-05-04 06:06 | -33.94908 | 151.17982 | 29 ft | 25 kts | 168° |
| 2026-05-04 06:06 | -33.95027 | 151.18014 | 30 ft | 0 kts | 167° |
| 2026-05-04 06:07 | -33.95028 | 151.18014 | 30 ft | 0 kts | 167° |
| 2026-05-04 06:07 | -33.95044 | 151.18018 | 30 ft | 8 kts | 167° |
| 2026-05-04 06:07 | -33.95152 | 151.18066 | 31 ft | 26 kts | 133° |
| 2026-05-04 06:08 | -33.95150 | 151.18252 | 30 ft | 19 kts | 80° |
| 2026-05-04 06:08 | -33.95124 | 151.18407 | 31 ft | 19 kts | 77° |
| 2026-05-04 06:08 | -33.95139 | 151.18551 | 31 ft | 18 kts | 128° |
| 2026-05-04 06:08 | -33.95227 | 151.18664 | 30 ft | 18 kts | 142° |
| 2026-05-04 06:09 | -33.95345 | 151.18727 | 29 ft | 19 kts | 166° |
| 2026-05-04 06:09 | -33.95481 | 151.18767 | 27 ft | 21 kts | 166° |
| 2026-05-04 06:11 | -33.96540 | 151.19039 | 25 ft | 26 kts | 168° |
| 2026-05-04 06:11 | -33.96717 | 151.19077 | 27 ft | 26 kts | 181° |
| 2026-05-04 06:13 | -33.96976 | 151.19356 | 27 ft | 0 kts | 344° |
| 2026-05-04 06:14 | -33.96914 | 151.19338 | 25 ft | 31 kts | 347° |
| 2026-05-04 06:14 | -33.96428 | 151.19212 | 27 ft | 109 kts | 347° |
| 2026-05-04 06:15 | -33.95473 | 151.18989 | 62 ft | 165 kts | 353° |
| 2026-05-04 06:15 | -33.94262 | 151.18705 | 398 ft | 191 kts | 349° |
| 2026-05-04 06:15 | -33.92931 | 151.18381 | 1017 ft | 194 kts | 1° |
| 2026-05-04 06:15 | -33.91665 | 151.18972 | 1610 ft | 210 kts | 41° |
| 2026-05-04 06:16 | -33.91051 | 151.20611 | 2140 ft | 231 kts | 78° |
| 2026-05-04 06:16 | -33.90801 | 151.22586 | 2406 ft | 246 kts | 71° |
| 2026-05-04 06:16 | -33.90637 | 151.24733 | 2715 ft | 272 kts | 94° |
| 2026-05-04 06:16 | -33.91337 | 151.26868 | 3448 ft | 278 kts | 121° |
| 2026-05-04 06:17 | -33.92302 | 151.28877 | 4164 ft | 278 kts | 113° |
| 2026-05-04 06:17 | -33.93146 | 151.31006 | 4856 ft | 283 kts | 111° |
| 2026-05-04 06:17 | -33.93631 | 151.33290 | 5403 ft | 283 kts | 87° |
| 2026-05-04 06:17 | -33.93562 | 151.35658 | 6017 ft | 285 kts | 81° |
| 2026-05-04 06:18 | -33.93452 | 151.38069 | 6675 ft | 290 kts | 83° |
| 2026-05-04 06:18 | -33.93374 | 151.40513 | 7362 ft | 294 kts | 84° |
| 2026-05-04 06:18 | -33.93303 | 151.42992 | 7955 ft | 302 kts | 83° |
| 2026-05-04 06:20 | -34.00777 | 151.55974 | 12336 ft | 335 kts | 190° |
| 2026-05-04 06:20 | -34.03023 | 151.55096 | 12622 ft | 347 kts | 218° |
| 2026-05-04 06:21 | -34.09557 | 151.45473 | 14390 ft | 396 kts | 234° |
| 2026-05-04 06:21 | -34.11348 | 151.42923 | 15205 ft | 399 kts | 234° |
| 2026-05-04 06:22 | -34.13161 | 151.40357 | 16046 ft | 402 kts | 234° |
| 2026-05-04 06:22 | -34.14993 | 151.37761 | 16869 ft | 405 kts | 234° |
| 2026-05-04 06:25 | -34.36080 | 151.07574 | 26268 ft | 373 kts | 237° |
| 2026-05-04 06:25 | -34.37764 | 151.05151 | 26808 ft | 376 kts | 237° |
| 2026-05-04 06:26 | -34.39467 | 151.02701 | 27394 ft | 379 kts | 237° |
| 2026-05-04 06:26 | -34.41148 | 151.00279 | 27911 ft | 383 kts | 237° |
| 2026-05-04 06:26 | -34.42871 | 150.97796 | 27977 ft | 384 kts | 237° |
| 2026-05-04 06:26 | -34.44591 | 150.95317 | 27990 ft | 383 kts | 237° |
| 2026-05-04 06:27 | -34.51437 | 150.85422 | 28019 ft | 388 kts | 237° |
| 2026-05-04 06:28 | -34.54996 | 150.80257 | 28157 ft | 406 kts | 237° |
| 2026-05-04 06:28 | -34.58530 | 150.74782 | 28298 ft | 421 kts | 240° |
| 2026-05-04 06:29 | -34.60270 | 150.71854 | 28364 ft | 432 kts | 241° |
| 2026-05-04 06:29 | -34.62039 | 150.68847 | 28449 ft | 444 kts | 240° |
| 2026-05-04 06:29 | -34.63866 | 150.65749 | 28599 ft | 456 kts | 240° |
| 2026-05-04 06:29 | -34.65716 | 150.62636 | 28895 ft | 463 kts | 240° |
| 2026-05-04 06:30 | -34.67624 | 150.59445 | 29355 ft | 467 kts | 240° |
| 2026-05-04 06:30 | -34.69557 | 150.56226 | 29856 ft | 469 kts | 240° |
| 2026-05-04 06:30 | -34.71467 | 150.53044 | 29973 ft | 474 kts | 240° |
| 2026-05-04 06:30 | -34.73416 | 150.49801 | 29985 ft | 472 kts | 240° |
| 2026-05-04 06:31 | -34.77282 | 150.43356 | 29970 ft | 471 kts | 240° |
| 2026-05-04 06:31 | -34.81133 | 150.36909 | 30003 ft | 474 kts | 240° |
| 2026-05-04 06:33 | -34.96663 | 150.10788 | 29995 ft | 473 kts | 240° |
| 2026-05-04 06:34 | -35.00534 | 150.04242 | 30002 ft | 473 kts | 241° |
| 2026-05-04 06:34 | -35.04336 | 149.97810 | 29980 ft | 468 kts | 241° |
| 2026-05-04 06:36 | -35.19225 | 149.72588 | 29993 ft | 426 kts | 243° |
| 2026-05-04 06:37 | -35.21022 | 149.69511 | 30008 ft | 435 kts | 243° |
| 2026-05-04 06:37 | -35.24593 | 149.63374 | 30005 ft | 443 kts | 242° |
| 2026-05-04 06:38 | -35.28168 | 149.57266 | 30023 ft | 441 kts | 243° |
| 2026-05-04 06:40 | -35.41696 | 149.34055 | 30042 ft | 435 kts | 243° |
| 2026-05-04 06:40 | -35.45209 | 149.27995 | 30049 ft | 437 kts | 243° |
| 2026-05-04 06:41 | -35.48749 | 149.21880 | 30038 ft | 440 kts | 243° |
| 2026-05-04 06:41 | -35.52277 | 149.15776 | 30026 ft | 441 kts | 243° |
| 2026-05-04 06:42 | -35.55842 | 149.09603 | 30016 ft | 442 kts | 243° |
| 2026-05-04 06:44 | -35.69321 | 148.86152 | 29995 ft | 434 kts | 244° |
| 2026-05-04 06:44 | -35.72785 | 148.80095 | 29992 ft | 435 kts | 244° |
| 2026-05-04 06:45 | -35.76270 | 148.73995 | 30013 ft | 437 kts | 244° |
| 2026-05-04 06:45 | -35.79771 | 148.67851 | 30015 ft | 438 kts | 244° |
| 2026-05-04 06:46 | -35.83266 | 148.61715 | 30003 ft | 438 kts | 244° |
| 2026-05-04 06:46 | -35.86759 | 148.55568 | 29707 ft | 438 kts | 244° |
| 2026-05-04 06:48 | -35.98961 | 148.33895 | 28184 ft | 440 kts | 245° |
| 2026-05-04 06:48 | -36.00707 | 148.30769 | 27869 ft | 443 kts | 244° |
| 2026-05-04 06:49 | -36.02453 | 148.27637 | 27478 ft | 447 kts | 244° |
| 2026-05-04 06:50 | -36.14764 | 148.05591 | 25990 ft | 445 kts | 244° |
| 2026-05-04 06:51 | -36.16531 | 148.02433 | 25817 ft | 443 kts | 244° |
| 2026-05-04 06:51 | -36.18289 | 147.99291 | 25649 ft | 441 kts | 244° |
| 2026-05-04 06:51 | -36.20032 | 147.96167 | 25477 ft | 439 kts | 244° |
| 2026-05-04 06:51 | -36.21742 | 147.93097 | 25282 ft | 438 kts | 244° |
| 2026-05-04 06:52 | -36.23470 | 147.89991 | 25152 ft | 436 kts | 245° |
| 2026-05-04 06:52 | -36.25188 | 147.86901 | 25079 ft | 434 kts | 245° |
| 2026-05-04 06:52 | -36.26903 | 147.83809 | 25062 ft | 434 kts | 245° |
| 2026-05-04 06:52 | -36.28606 | 147.80732 | 25026 ft | 437 kts | 245° |
| 2026-05-04 06:53 | -36.30331 | 147.77621 | 25033 ft | 437 kts | 245° |
| 2026-05-04 06:53 | -36.32055 | 147.74512 | 25029 ft | 437 kts | 245° |
| 2026-05-04 06:53 | -36.33766 | 147.71420 | 25022 ft | 438 kts | 245° |
| 2026-05-04 06:53 | -36.35497 | 147.68281 | 25027 ft | 438 kts | 245° |
| 2026-05-04 06:54 | -36.37200 | 147.65191 | 25023 ft | 438 kts | 245° |
| 2026-05-04 06:54 | -36.38926 | 147.62058 | 25023 ft | 438 kts | 244° |
| 2026-05-04 06:54 | -36.40641 | 147.58942 | 25040 ft | 438 kts | 244° |
| 2026-05-04 06:54 | -36.42356 | 147.55820 | 25016 ft | 438 kts | 244° |
| 2026-05-04 06:55 | -36.44074 | 147.52693 | 25007 ft | 437 kts | 244° |
| 2026-05-04 06:55 | -36.45791 | 147.49562 | 25010 ft | 437 kts | 244° |
| 2026-05-04 06:55 | -36.47483 | 147.46475 | 25011 ft | 436 kts | 244° |
| 2026-05-04 06:55 | -36.49193 | 147.43354 | 25008 ft | 436 kts | 244° |
| 2026-05-04 06:56 | -36.50898 | 147.40238 | 25007 ft | 436 kts | 244° |
| 2026-05-04 06:57 | -36.62773 | 147.18453 | 24980 ft | 435 kts | 244° |
| 2026-05-04 06:58 | -36.64483 | 147.15297 | 25004 ft | 435 kts | 244° |
| 2026-05-04 06:58 | -36.66158 | 147.12211 | 25008 ft | 436 kts | 244° |
| 2026-05-04 06:58 | -36.67866 | 147.09070 | 25036 ft | 437 kts | 244° |
| 2026-05-04 06:58 | -36.69575 | 147.05926 | 25003 ft | 439 kts | 244° |
| 2026-05-04 06:59 | -36.71284 | 147.02777 | 25002 ft | 438 kts | 244° |
| 2026-05-04 06:59 | -36.72987 | 146.99636 | 25003 ft | 437 kts | 244° |
| 2026-05-04 06:59 | -36.74693 | 146.96487 | 25003 ft | 437 kts | 244° |
| 2026-05-04 06:59 | -36.76399 | 146.93338 | 24996 ft | 437 kts | 244° |
| 2026-05-04 07:01 | -36.88249 | 146.71344 | 25009 ft | 436 kts | 244° |
| 2026-05-04 07:01 | -36.89943 | 146.68192 | 24991 ft | 436 kts | 244° |
| 2026-05-04 07:02 | -36.91634 | 146.65040 | 25005 ft | 435 kts | 245° |
| 2026-05-04 07:02 | -36.93298 | 146.61930 | 24991 ft | 435 kts | 244° |
| 2026-05-04 07:02 | -36.94981 | 146.58788 | 24964 ft | 435 kts | 244° |
| 2026-05-04 07:02 | -36.96671 | 146.55630 | 24881 ft | 436 kts | 244° |
| 2026-05-04 07:03 | -36.98359 | 146.52474 | 24828 ft | 436 kts | 245° |
| 2026-05-04 07:03 | -37.00051 | 146.49307 | 24789 ft | 436 kts | 245° |
| 2026-05-04 07:03 | -37.01737 | 146.46144 | 24760 ft | 436 kts | 245° |
| 2026-05-04 07:03 | -37.03397 | 146.43029 | 24726 ft | 435 kts | 245° |
| 2026-05-04 07:04 | -37.05081 | 146.39862 | 24708 ft | 434 kts | 245° |
| 2026-05-04 07:04 | -37.06750 | 146.36723 | 24364 ft | 432 kts | 244° |
| 2026-05-04 07:04 | -37.08407 | 146.33611 | 24102 ft | 426 kts | 244° |
| 2026-05-04 07:04 | -37.10023 | 146.30581 | 23995 ft | 418 kts | 245° |
| 2026-05-04 07:05 | -37.11617 | 146.27590 | 23925 ft | 408 kts | 245° |
| 2026-05-04 07:05 | -37.13180 | 146.24649 | 23814 ft | 401 kts | 245° |
| 2026-05-04 07:05 | -37.14714 | 146.21750 | 23577 ft | 397 kts | 245° |
| 2026-05-04 07:05 | -37.16235 | 146.18869 | 23161 ft | 394 kts | 245° |
| 2026-05-04 07:06 | -37.19235 | 146.13178 | 22266 ft | 388 kts | 244° |
| 2026-05-04 07:06 | -37.20699 | 146.10400 | 21836 ft | 385 kts | 244° |
| 2026-05-04 07:06 | -37.22177 | 146.07593 | 21378 ft | 382 kts | 244° |
| 2026-05-04 07:07 | -37.23641 | 146.04815 | 20954 ft | 379 kts | 244° |
| 2026-05-04 07:08 | -37.33583 | 145.85872 | 17919 ft | 364 kts | 242° |
| 2026-05-04 07:09 | -37.34975 | 145.83215 | 17441 ft | 362 kts | 242° |
| 2026-05-04 07:09 | -37.36333 | 145.80621 | 17129 ft | 355 kts | 242° |
| 2026-05-04 07:09 | -37.37679 | 145.78052 | 16885 ft | 347 kts | 242° |
| 2026-05-04 07:09 | -37.38992 | 145.75538 | 16580 ft | 341 kts | 242° |
| 2026-05-04 07:10 | -37.40292 | 145.73043 | 16153 ft | 338 kts | 242° |
| 2026-05-04 07:10 | -37.41566 | 145.70593 | 15687 ft | 337 kts | 242° |
| 2026-05-04 07:12 | -37.50081 | 145.53468 | 12639 ft | 322 kts | 244° |
| 2026-05-04 07:12 | -37.51232 | 145.51055 | 12242 ft | 319 kts | 244° |
| 2026-05-04 07:12 | -37.52358 | 145.48696 | 11837 ft | 315 kts | 244° |
| 2026-05-04 07:12 | -37.53483 | 145.46339 | 11442 ft | 313 kts | 244° |
| 2026-05-04 07:13 | -37.54604 | 145.43993 | 11124 ft | 307 kts | 244° |
| 2026-05-04 07:13 | -37.55678 | 145.41751 | 11048 ft | 293 kts | 244° |
| 2026-05-04 07:13 | -37.56686 | 145.39652 | 10871 ft | 267 kts | 245° |
| 2026-05-04 07:14 | -37.60075 | 145.32555 | 10278 ft | 216 kts | 247° |
| 2026-05-04 07:14 | -37.60847 | 145.30924 | 10195 ft | 217 kts | 247° |
| 2026-05-04 07:15 | -37.61615 | 145.29298 | 9985 ft | 220 kts | 247° |
| 2026-05-04 07:15 | -37.62404 | 145.27629 | 9628 ft | 222 kts | 247° |
| 2026-05-04 07:15 | -37.63193 | 145.25965 | 9344 ft | 214 kts | 246° |
| 2026-05-04 07:15 | -37.63959 | 145.24355 | 9311 ft | 221 kts | 247° |
| 2026-05-04 07:16 | -37.64758 | 145.22666 | 8981 ft | 224 kts | 247° |
| 2026-05-04 07:16 | -37.65553 | 145.20998 | 8697 ft | 218 kts | 247° |
| 2026-05-04 07:16 | -37.66320 | 145.19388 | 8442 ft | 210 kts | 248° |
| 2026-05-04 07:16 | -37.67064 | 145.17823 | 8180 ft | 206 kts | 248° |
| 2026-05-04 07:17 | -37.67806 | 145.16258 | 7936 ft | 210 kts | 247° |
| 2026-05-04 07:17 | -37.68631 | 145.14661 | 7420 ft | 222 kts | 244° |
| 2026-05-04 07:17 | -37.69480 | 145.13083 | 7065 ft | 217 kts | 244° |
| 2026-05-04 07:17 | -37.70321 | 145.11529 | 6764 ft | 209 kts | 245° |
| 2026-05-04 07:18 | -37.71132 | 145.10026 | 6502 ft | 205 kts | 245° |
| 2026-05-04 07:18 | -37.71933 | 145.08529 | 6265 ft | 207 kts | 245° |
| 2026-05-04 07:18 | -37.72737 | 145.07020 | 5954 ft | 212 kts | 245° |
| 2026-05-04 07:18 | -37.73568 | 145.05463 | 5624 ft | 211 kts | 246° |
| 2026-05-04 07:19 | -37.74385 | 145.03935 | 5364 ft | 208 kts | 246° |
| 2026-05-04 07:19 | -37.75188 | 145.02430 | 5098 ft | 204 kts | 246° |
| 2026-05-04 07:19 | -37.75977 | 145.00950 | 4864 ft | 200 kts | 246° |
| 2026-05-04 07:19 | -37.76742 | 144.99507 | 4664 ft | 202 kts | 246° |
| 2026-05-04 07:20 | -37.77534 | 144.98011 | 4419 ft | 204 kts | 246° |
| 2026-05-04 07:20 | -37.78316 | 144.96544 | 4337 ft | 200 kts | 246° |
| 2026-05-04 07:20 | -37.79090 | 144.95085 | 4205 ft | 200 kts | 246° |
| 2026-05-04 07:20 | -37.79874 | 144.93602 | 3943 ft | 206 kts | 245° |
| 2026-05-04 07:22 | -37.78245 | 144.85940 | 2544 ft | 166 kts | 346° |
| 2026-05-04 07:22 | -37.77105 | 144.85716 | 2531 ft | 165 kts | 347° |
| 2026-05-04 07:23 | -37.75978 | 144.85499 | 2536 ft | 166 kts | 347° |
| 2026-05-04 07:23 | -37.74825 | 144.85276 | 2407 ft | 167 kts | 346° |
| 2026-05-04 07:23 | -37.73694 | 144.85062 | 2239 ft | 163 kts | 347° |
| 2026-05-04 07:23 | -37.72577 | 144.84852 | 2089 ft | 162 kts | 348° |
| 2026-05-04 07:24 | -37.71454 | 144.84638 | 1919 ft | 162 kts | 349° |
| 2026-05-04 07:24 | -37.70343 | 144.84430 | 1729 ft | 165 kts | 350° |
| 2026-05-04 07:24 | -37.69199 | 144.84219 | 1628 ft | 168 kts | 348° |
| 2026-05-04 07:24 | -37.68054 | 144.84004 | 1681 ft | 165 kts | 349° |
| 2026-05-04 07:25 | -37.66917 | 144.83790 | 1860 ft | 162 kts | 349° |
| 2026-05-04 07:26 | -37.61191 | 144.78816 | 2941 ft | 180 kts | 282° |
| 2026-05-04 07:27 | -37.61097 | 144.77231 | 2955 ft | 180 kts | 282° |
| 2026-05-04 07:27 | -37.61038 | 144.76193 | 2979 ft | 178 kts | 282° |
| 2026-05-04 07:27 | -37.60926 | 144.74149 | 3040 ft | 176 kts | 282° |
| 2026-05-04 07:27 | -37.60867 | 144.73099 | 3029 ft | 178 kts | 282° |
| 2026-05-04 07:28 | -37.60776 | 144.71543 | 3033 ft | 180 kts | 281° |
| 2026-05-04 07:28 | -37.60668 | 144.69955 | 3033 ft | 182 kts | 282° |
| 2026-05-04 07:28 | -37.60694 | 144.68352 | 3012 ft | 189 kts | 260° |
| 2026-05-04 07:28 | -37.61476 | 144.66983 | 3022 ft | 207 kts | 224° |
| 2026-05-04 07:29 | -37.62881 | 144.66366 | 3036 ft | 223 kts | 194° |
| 2026-05-04 07:29 | -37.64455 | 144.66199 | 3035 ft | 231 kts | 192° |
| 2026-05-04 07:29 | -37.66062 | 144.66030 | 3024 ft | 231 kts | 192° |
| 2026-05-04 07:29 | -37.67653 | 144.65865 | 3036 ft | 228 kts | 192° |
| 2026-05-04 07:30 | -37.69223 | 144.65730 | 3036 ft | 226 kts | 192° |
| 2026-05-04 07:30 | -37.70794 | 144.65609 | 3010 ft | 224 kts | 191° |
| 2026-05-04 07:30 | -37.72349 | 144.65477 | 3013 ft | 223 kts | 192° |
| 2026-05-04 07:30 | -37.73877 | 144.65358 | 3022 ft | 222 kts | 192° |
| 2026-05-04 07:31 | -37.75423 | 144.65245 | 3031 ft | 223 kts | 191° |
| 2026-05-04 07:31 | -37.76987 | 144.65127 | 3015 ft | 224 kts | 192° |
| 2026-05-04 07:33 | -37.87963 | 144.64351 | 2996 ft | 226 kts | 186° |
| 2026-05-04 07:33 | -37.89493 | 144.64895 | 2991 ft | 236 kts | 150° |
| 2026-05-04 07:33 | -37.90778 | 144.66190 | 3024 ft | 242 kts | 142° |
| 2026-05-04 07:33 | -37.92072 | 144.67584 | 3001 ft | 246 kts | 142° |
| 2026-05-04 07:34 | -37.93377 | 144.68991 | 2981 ft | 242 kts | 140° |
| 2026-05-04 07:34 | -37.94344 | 144.70667 | 2978 ft | 235 kts | 105° |
| 2026-05-04 07:34 | -37.94639 | 144.72661 | 3022 ft | 234 kts | 91° |
| 2026-05-04 07:34 | -37.94837 | 144.74750 | 2993 ft | 241 kts | 92° |
| 2026-05-04 07:35 | -37.95047 | 144.76857 | 2995 ft | 238 kts | 91° |
| 2026-05-04 07:35 | -37.95204 | 144.78327 | 2986 ft | 233 kts | 92° |
| 2026-05-04 07:35 | -37.95422 | 144.80321 | 2985 ft | 230 kts | 92° |
| 2026-05-04 07:35 | -37.95643 | 144.82336 | 3002 ft | 232 kts | 92° |
| 2026-05-04 07:36 | -37.95864 | 144.84383 | 3019 ft | 235 kts | 91° |
| 2026-05-04 07:36 | -37.96093 | 144.86464 | 3026 ft | 238 kts | 92° |
| 2026-05-04 07:38 | -37.91341 | 144.91715 | 2838 ft | 163 kts | 330° |
| 2026-05-04 07:38 | -37.90340 | 144.91099 | 2768 ft | 156 kts | 330° |
| 2026-05-04 07:38 | -37.89374 | 144.90505 | 2610 ft | 152 kts | 331° |
| 2026-05-04 07:38 | -37.88431 | 144.89927 | 2566 ft | 151 kts | 331° |
| 2026-05-04 07:39 | -37.87484 | 144.89349 | 2555 ft | 154 kts | 332° |
| 2026-05-04 07:39 | -37.86508 | 144.88754 | 2523 ft | 156 kts | 332° |
| 2026-05-04 07:39 | -37.85527 | 144.88158 | 2530 ft | 157 kts | 332° |
| 2026-05-04 07:39 | -37.84533 | 144.87555 | 2532 ft | 158 kts | 332° |
| 2026-05-04 07:40 | -37.83546 | 144.86962 | 2521 ft | 158 kts | 335° |
| 2026-05-04 07:40 | -37.82483 | 144.86659 | 2526 ft | 156 kts | 346° |
| 2026-05-04 07:40 | -37.81404 | 144.86468 | 2514 ft | 156 kts | 346° |
| 2026-05-04 07:40 | -37.80317 | 144.86274 | 2479 ft | 159 kts | 346° |
| 2026-05-04 07:41 | -37.79223 | 144.86075 | 2311 ft | 160 kts | 346° |
| 2026-05-04 07:41 | -37.78157 | 144.85881 | 2094 ft | 147 kts | 347° |
| 2026-05-04 07:41 | -37.77121 | 144.85688 | 1938 ft | 152 kts | 348° |
| 2026-05-04 07:41 | -37.76080 | 144.85496 | 1742 ft | 150 kts | 348° |
| 2026-05-04 07:42 | -37.75077 | 144.85311 | 1520 ft | 148 kts | 348° |
| 2026-05-04 07:42 | -37.74052 | 144.85119 | 1366 ft | 150 kts | 349° |
| 2026-05-04 07:42 | -37.73003 | 144.84920 | 1231 ft | 151 kts | 352° |
| 2026-05-04 07:42 | -37.71962 | 144.84738 | 1015 ft | 150 kts | 352° |
| 2026-05-04 07:43 | -37.70969 | 144.84541 | 787 ft | 145 kts | 352° |
| 2026-05-04 07:43 | -37.69904 | 144.84334 | 619 ft | 159 kts | 353° |
| 2026-05-04 07:43 | -37.68831 | 144.84138 | 409 ft | 150 kts | 354° |
| 2026-05-04 07:43 | -37.67883 | 144.83973 | 360 ft | 93 kts | 351° |
| 2026-05-04 07:44 | -37.67334 | 144.83871 | 377 ft | 67 kts | 352° |
| 2026-05-04 07:44 | -37.66981 | 144.83848 | 387 ft | 26 kts | 16° |
| 2026-05-04 07:44 | -37.66887 | 144.83890 | 388 ft | 4 kts | 21° |
| 2026-05-04 07:44 | -37.66878 | 144.83894 | 388 ft | 1 kts | 21° |
| 2026-05-04 07:45 | -37.66876 | 144.83896 | 388 ft | 0 kts | 21° |
| 2026-05-04 07:46 | -37.66819 | 144.83933 | 387 ft | 18 kts | 45° |
| 2026-05-04 07:47 | -37.66832 | 144.83983 | 385 ft | 7 kts | 157° |
| 2026-05-04 07:47 | -37.66914 | 144.84008 | 383 ft | 21 kts | 167° |
| 2026-05-04 07:47 | -37.67087 | 144.84040 | 379 ft | 21 kts | 171° |
| 2026-05-04 07:49 | -37.67492 | 144.84147 | 370 ft | 0 kts | 120° |
| 2026-05-04 07:50 | -37.67493 | 144.84151 | 370 ft | 1 kts | 110° |
| 2026-05-04 07:50 | -37.67495 | 144.84181 | 373 ft | 6 kts | 94° |
| 2026-05-04 07:51 | -37.67491 | 144.84252 | 368 ft | 9 kts | 83° |
| 2026-05-04 07:51 | -37.67486 | 144.84336 | 369 ft | 10 kts | 98° |
| 2026-05-04 07:51 | -37.67473 | 144.84424 | 368 ft | 11 kts | 75° |
| 2026-05-04 07:51 | -37.67488 | 144.84521 | 368 ft | 12 kts | 137° |
| 2026-05-04 07:52 | -37.67575 | 144.84555 | 363 ft | 14 kts | 168° |
| 2026-05-04 07:52 | -37.67675 | 144.84575 | 361 ft | 15 kts | 171° |
| 2026-05-04 07:52 | -37.67739 | 144.84587 | 359 ft | 0 kts | 171° |
| 2026-05-04 07:55 | -37.67751 | 144.84595 | 361 ft | 10 kts | 146° |
| 2026-05-04 07:55 | -37.67743 | 144.84681 | 360 ft | 10 kts | 70° |
| 2026-05-04 07:56 | -37.67741 | 144.84761 | 356 ft | 9 kts | 123° |
| 2026-05-04 07:56 | -37.67774 | 144.84778 | 359 ft | 5 kts | 168° |
| 2026-05-04 07:56 | -37.67802 | 144.84784 | 357 ft | 1 kts | 171° |
| 2026-05-04 07:56 | -37.67815 | 144.84786 | 355 ft | 0 kts | 171° |